createdAt,value
2018-05-18T00:00:46.417Z,93466.34
2018-05-18T00:03:12.935Z,93463.56
2018-05-18T00:05:39.339Z,93458.02
2018-05-18T00:08:05.734Z,93461.23
2018-05-18T00:10:32.104Z,93466.45
2018-05-18T00:12:58.484Z,93466.19
2018-05-18T00:15:24.963Z,93471.64
2018-05-18T00:17:51.401Z,93472.22
2018-05-18T00:20:22.696Z,93477.49
2018-05-18T00:22:49.124Z,93476.14
2018-05-18T00:25:15.605Z,93478.49
2018-05-18T00:27:42.101Z,93481.51
2018-05-18T00:30:08.512Z,93482.08
2018-05-18T00:32:35.010Z,93481.03
2018-05-18T00:35:01.570Z,93477.85
2018-05-18T00:37:27.934Z,93475.98
2018-05-18T00:39:54.323Z,93482.01
2018-05-18T00:42:20.709Z,93471.46
2018-05-18T00:44:47.122Z,93469.80
2018-05-18T00:47:13.419Z,93471.34
2018-05-18T00:49:39.821Z,93472.84
2018-05-18T00:52:06.246Z,93469.20
2018-05-18T00:54:32.633Z,93473.77
2018-05-18T00:56:59.055Z,93479.29
2018-05-18T00:59:25.452Z,93471.88
2018-05-18T01:01:51.832Z,93472.48
2018-05-18T01:04:18.392Z,93471.61
2018-05-18T01:06:44.845Z,93474.36
2018-05-18T01:09:11.378Z,93474.89
2018-05-18T01:11:37.810Z,93481.25
2018-05-18T01:14:04.255Z,93478.72
2018-05-18T01:16:30.597Z,93474.15
2018-05-18T01:18:57.016Z,93475.87
2018-05-18T01:21:23.373Z,93473.05
2018-05-18T01:23:49.731Z,93470.77
2018-05-18T01:26:16.100Z,93482.00
2018-05-18T01:28:42.527Z,93487.23
2018-05-18T01:31:08.846Z,93490.97
2018-05-18T01:33:35.259Z,93483.11
2018-05-18T01:36:01.649Z,93487.95
2018-05-18T01:38:28.005Z,93497.94
2018-05-18T01:40:54.349Z,93493.33
2018-05-18T01:43:20.739Z,93492.76
2018-05-18T01:45:47.071Z,93496.73
2018-05-18T01:48:13.472Z,93497.50
2018-05-18T01:50:39.868Z,93498.02
2018-05-18T01:53:06.224Z,93491.66
2018-05-18T01:55:32.722Z,93486.05
2018-05-18T01:57:59.187Z,93484.08
2018-05-18T02:00:25.609Z,93481.95
2018-05-18T02:02:52.064Z,93483.83
2018-05-18T02:05:18.555Z,93484.84
2018-05-18T02:07:44.913Z,93486.81
2018-05-18T02:10:11.305Z,93486.80
2018-05-18T02:12:37.737Z,93487.53
2018-05-18T02:15:04.204Z,93491.75
2018-05-18T02:17:30.611Z,93493.70
2018-05-18T02:19:57.034Z,93488.69
2018-05-18T02:22:23.423Z,93490.73
2018-05-18T02:24:49.846Z,93492.59
2018-05-18T02:27:16.281Z,93484.06
2018-05-18T02:29:42.708Z,93481.77
2018-05-18T02:32:09.122Z,93483.53
2018-05-18T02:34:35.536Z,93480.29
2018-05-18T02:37:01.961Z,93481.50
2018-05-18T02:39:28.392Z,93485.30
2018-05-18T02:41:54.742Z,93480.66
2018-05-18T02:44:21.114Z,93481.39
2018-05-18T02:46:47.470Z,93481.48
2018-05-18T02:49:13.865Z,93485.20
2018-05-18T02:51:40.269Z,93487.06
2018-05-18T02:54:06.665Z,93483.23
2018-05-18T02:56:33.128Z,93485.73
2018-05-18T02:58:59.467Z,93489.89
2018-05-18T03:01:25.906Z,93487.88
2018-05-18T03:03:52.437Z,93485.73
2018-05-18T03:06:18.836Z,93484.87
2018-05-18T03:08:45.193Z,93483.58
2018-05-18T03:11:11.642Z,93484.55
2018-05-18T03:13:38.095Z,93481.96
2018-05-18T03:16:04.546Z,93484.55
2018-05-18T03:18:31.022Z,93483.87
2018-05-18T03:20:57.412Z,93493.41
2018-05-18T03:23:23.813Z,93497.77
2018-05-18T03:25:50.372Z,93495.98
2018-05-18T03:28:16.935Z,93502.68
2018-05-18T03:30:43.509Z,93507.47
2018-05-18T03:33:10.151Z,93510.30
2018-05-18T03:35:36.587Z,93509.59
2018-05-18T03:38:03.017Z,93510.80
2018-05-18T03:40:29.654Z,93513.98
2018-05-18T03:42:56.143Z,93520.59
2018-05-18T03:45:22.803Z,93518.62
2018-05-18T03:47:49.391Z,93523.43
2018-05-18T03:50:15.920Z,93516.52
2018-05-18T03:52:42.483Z,93523.11
2018-05-18T03:55:08.970Z,93520.87
2018-05-18T03:57:35.397Z,93516.06
2018-05-18T04:00:08.954Z,93513.73
2018-05-18T04:02:47.624Z,93517.52
2018-05-18T04:05:26.372Z,93523.74
2018-05-18T04:10:52.340Z,93525.15
2018-05-18T04:13:19.507Z,93534.12
2018-05-18T04:15:46.090Z,93532.80
2018-05-18T04:18:12.565Z,93531.33
2018-05-18T04:20:39.296Z,93536.70
2018-05-18T04:23:05.844Z,93535.27
2018-05-18T04:25:32.399Z,93534.92
2018-05-18T04:27:58.952Z,93533.42
2018-05-18T04:30:25.434Z,93537.73
2018-05-18T04:32:52.862Z,93535.55
2018-05-18T04:35:19.350Z,93541.84
2018-05-18T04:37:46.217Z,93541.25
2018-05-18T04:40:12.643Z,93535.01
2018-05-18T04:42:39.078Z,93539.33
2018-05-18T04:45:05.558Z,93540.70
2018-05-18T04:47:32.071Z,93541.73
2018-05-18T04:49:58.483Z,93537.52
2018-05-18T04:52:24.877Z,93538.59
2018-05-18T04:54:51.640Z,93540.70
2018-05-18T04:57:18.199Z,93539.98
2018-05-18T04:59:44.604Z,93547.41
2018-05-18T05:02:11.362Z,93546.03
2018-05-18T05:04:37.798Z,93542.52
2018-05-18T05:07:04.218Z,93545.37
2018-05-18T05:09:31.402Z,93542.55
2018-05-18T05:11:57.916Z,93538.25
2018-05-18T05:14:24.445Z,93546.20
2018-05-18T05:16:50.815Z,93554.11
2018-05-18T05:19:17.193Z,93552.80
2018-05-18T05:21:43.591Z,93556.73
2018-05-18T05:24:10.142Z,93551.56
2018-05-18T05:26:36.586Z,93552.52
2018-05-18T05:29:03.081Z,93552.95
2018-05-18T05:31:29.570Z,93546.55
2018-05-18T05:33:56.095Z,93540.45
2018-05-18T05:36:22.533Z,93536.13
2018-05-18T05:38:49.059Z,93535.94
2018-05-18T05:41:15.553Z,93533.85
2018-05-18T05:43:42.039Z,93524.88
2018-05-18T05:46:08.911Z,93530.18
2018-05-18T05:48:35.405Z,93527.06
2018-05-18T05:51:01.839Z,93535.41
2018-05-18T05:53:28.271Z,93535.44
2018-05-18T05:55:54.758Z,93538.75
2018-05-18T05:58:21.255Z,93542.70
2018-05-18T06:00:47.770Z,93542.15
2018-05-18T06:03:14.254Z,93542.02
2018-05-18T06:05:40.943Z,93540.75
2018-05-18T06:08:07.649Z,93532.91
2018-05-18T06:10:34.455Z,93540.39
2018-05-18T06:13:01.011Z,93535.56
2018-05-18T06:15:27.567Z,93533.36
2018-05-18T06:17:54.299Z,93533.55
2018-05-18T06:20:20.728Z,93531.56
2018-05-18T06:22:47.266Z,93538.17
2018-05-18T06:25:13.769Z,93542.67
2018-05-18T06:27:40.148Z,93539.22
2018-05-18T06:30:06.653Z,93537.41
2018-05-18T06:32:33.279Z,93545.96
2018-05-18T06:35:01.107Z,93538.77
2018-05-18T06:37:27.835Z,93539.94
2018-05-18T06:39:54.330Z,93537.22
2018-05-18T06:42:21.923Z,93544.66
2018-05-18T06:44:48.565Z,93530.92
2018-05-18T06:47:15.063Z,93533.45
2018-05-18T06:49:41.583Z,93528.09
2018-05-18T06:52:08.167Z,93524.08
2018-05-18T06:54:34.662Z,93525.11
2018-05-18T06:57:01.071Z,93522.66
2018-05-18T06:59:27.534Z,93523.13
2018-05-18T07:01:53.931Z,93526.91
2018-05-18T07:04:20.375Z,93530.11
2018-05-18T07:06:46.785Z,93518.33
2018-05-18T07:09:13.236Z,93523.70
2018-05-18T07:11:39.645Z,93515.84
2018-05-18T07:14:06.353Z,93523.88
2018-05-18T07:16:32.882Z,93516.16
2018-05-18T07:18:59.378Z,93511.27
2018-05-18T07:21:25.769Z,93515.14
2018-05-18T07:23:52.185Z,93512.66
2018-05-18T07:26:18.698Z,93510.55
2018-05-18T07:28:45.128Z,93518.95
2018-05-18T07:31:11.523Z,93520.83
2018-05-18T07:33:38.821Z,93524.73
2018-05-18T07:36:05.411Z,93519.75
2018-05-18T07:38:31.816Z,93523.60
2018-05-18T07:40:58.304Z,93530.69
2018-05-18T07:43:24.739Z,93521.95
2018-05-18T07:45:51.325Z,93531.91
2018-05-18T07:48:17.824Z,93522.70
2018-05-18T07:50:44.421Z,93520.63
2018-05-18T07:53:10.796Z,93523.42
2018-05-18T07:55:37.296Z,93518.61
2018-05-18T07:58:04.036Z,93517.95
2018-05-18T08:00:30.472Z,93522.41
2018-05-18T08:02:57.079Z,93518.52
2018-05-18T08:05:23.609Z,93515.17
2018-05-18T08:07:50.328Z,93518.30
2018-05-18T08:10:16.806Z,93520.45
2018-05-18T08:12:43.225Z,93523.43
2018-05-18T08:15:10.203Z,93513.09
2018-05-18T08:17:36.677Z,93516.69
2018-05-18T08:20:03.389Z,93515.37
2018-05-18T08:22:29.872Z,93513.17
2018-05-18T08:24:56.329Z,93511.75
2018-05-18T08:27:22.837Z,93505.73
2018-05-18T08:29:49.205Z,93496.47
2018-05-18T08:32:15.688Z,93505.28
2018-05-18T08:34:42.168Z,93502.45
2018-05-18T08:37:08.580Z,93507.13
2018-05-18T08:39:34.980Z,93508.95
2018-05-18T08:42:01.424Z,93503.24
2018-05-18T08:44:28.067Z,93499.97
2018-05-18T08:46:54.438Z,93493.73
2018-05-18T08:49:20.999Z,93493.84
2018-05-18T08:51:47.382Z,93496.51
2018-05-18T08:54:13.865Z,93503.14
2018-05-18T08:56:40.316Z,93494.01
2018-05-18T08:59:06.708Z,93494.78
2018-05-18T09:01:33.135Z,93496.11
2018-05-18T09:03:59.549Z,93495.77
2018-05-18T09:06:26.093Z,93503.59
2018-05-18T09:08:52.578Z,93509.16
2018-05-18T09:11:18.963Z,93508.01
2018-05-18T09:13:45.368Z,93505.84
2018-05-18T09:16:11.775Z,93503.91
2018-05-18T09:18:38.200Z,93503.52
2018-05-18T09:21:04.634Z,93498.42
2018-05-18T09:23:31.097Z,93499.30
2018-05-18T09:25:58.574Z,93484.81
2018-05-18T09:28:25.208Z,93483.70
2018-05-18T09:30:51.602Z,93485.03
2018-05-18T09:33:18.088Z,93483.73
2018-05-18T09:35:56.437Z,93481.95
2018-05-18T09:38:22.877Z,93482.92
2018-05-18T09:40:49.325Z,93486.77
2018-05-18T09:43:16.340Z,93480.17
2018-05-18T09:45:42.826Z,93481.12
2018-05-18T09:48:09.578Z,93478.06
2018-05-18T09:50:35.983Z,93482.59
2018-05-18T09:53:02.418Z,93470.23
2018-05-18T09:55:29.356Z,93464.25
2018-05-18T09:57:55.530Z,93474.25
2018-05-18T10:00:21.925Z,93472.97
2018-05-18T10:02:48.333Z,93456.50
2018-05-18T10:05:14.783Z,93463.56
2018-05-18T10:07:41.264Z,93458.30
2018-05-18T10:10:07.879Z,93457.93
2018-05-18T10:12:34.376Z,93453.50
2018-05-18T10:15:03.000Z,93455.69
2018-05-18T10:17:30.146Z,93448.30
2018-05-18T10:19:56.946Z,93448.80
2018-05-18T10:22:23.719Z,93445.20
2018-05-18T10:24:51.481Z,93445.09
2018-05-18T10:27:18.159Z,93442.34
2018-05-18T10:29:44.649Z,93442.67
2018-05-18T10:32:11.446Z,93442.25
2018-05-18T10:34:38.184Z,93437.42
2018-05-18T10:37:04.651Z,93440.47
2018-05-18T10:39:31.064Z,93440.61
2018-05-18T10:41:57.542Z,93438.02
2018-05-18T10:44:23.962Z,93429.21
2018-05-18T10:46:50.422Z,93432.56
2018-05-18T10:49:17.228Z,93424.12
2018-05-18T10:51:43.597Z,93426.72
2018-05-18T10:54:10.111Z,93420.89
2018-05-18T10:56:36.894Z,93420.20
2018-05-18T10:59:03.529Z,93424.37
2018-05-18T11:01:30.474Z,93424.80
2018-05-18T11:03:56.967Z,93415.25
2018-05-18T11:06:23.572Z,93409.59
2018-05-18T11:08:50.120Z,93398.16
2018-05-18T11:11:16.598Z,93407.66
2018-05-18T11:13:43.134Z,93414.71
2018-05-18T11:16:09.584Z,93407.89
2018-05-18T11:18:36.012Z,93408.05
2018-05-18T11:21:02.514Z,93413.27
2018-05-18T11:23:29.038Z,93404.14
2018-05-18T11:25:55.546Z,93403.95
2018-05-18T11:28:22.009Z,93401.91
2018-05-18T11:30:48.503Z,93403.05
2018-05-18T11:33:15.041Z,93401.08
2018-05-18T11:35:41.541Z,93393.15
2018-05-18T11:38:08.002Z,93384.24
2018-05-18T11:40:34.558Z,93393.91
2018-05-18T11:43:01.120Z,93387.80
2018-05-18T11:45:28.975Z,93388.53
2018-05-18T11:47:55.805Z,93387.09
2018-05-18T11:50:22.390Z,93377.41
2018-05-18T11:52:48.817Z,93379.42
2018-05-18T11:55:16.314Z,93374.48
2018-05-18T11:57:42.808Z,93370.97
2018-05-18T12:00:09.238Z,93368.30
2018-05-18T12:02:35.701Z,93365.03
2018-05-18T12:05:02.156Z,93361.78
2018-05-18T12:07:28.612Z,93357.67
2018-05-18T12:09:55.082Z,93355.24
2018-05-18T12:12:21.549Z,93347.76
2018-05-18T12:14:48.011Z,93346.83
2018-05-18T12:17:14.538Z,93345.98
2018-05-18T12:19:41.092Z,93353.82
2018-05-18T12:22:08.016Z,93346.59
2018-05-18T12:24:34.695Z,93347.92
2018-05-18T12:27:01.436Z,93346.77
2018-05-18T12:29:27.988Z,93346.99
2018-05-18T12:31:54.469Z,93345.34
2018-05-18T12:34:20.975Z,93344.02
2018-05-18T12:36:47.453Z,93340.19
2018-05-18T12:39:14.019Z,93333.23
2018-05-18T12:41:40.489Z,93335.03
2018-05-18T12:44:07.583Z,93330.17
2018-05-18T12:46:34.461Z,93332.86
2018-05-18T12:49:00.940Z,93327.95
2018-05-18T12:51:28.078Z,93322.91
2018-05-18T12:53:54.651Z,93324.92
2018-05-18T12:56:21.126Z,93320.33
2018-05-18T12:58:47.693Z,93318.25
2018-05-18T13:01:14.291Z,93319.08
2018-05-18T13:03:40.935Z,93315.31
2018-05-18T13:06:07.799Z,93309.58
2018-05-18T13:08:35.455Z,93306.02
2018-05-18T13:11:02.262Z,93309.18
2018-05-18T13:13:28.871Z,93301.78
2018-05-18T13:15:57.481Z,93300.86
2018-05-18T13:18:24.114Z,93312.52
2018-05-18T13:20:50.638Z,93293.97
2018-05-18T13:23:17.373Z,93297.62
2018-05-18T13:25:44.082Z,93304.48
2018-05-18T13:28:10.598Z,93302.53
2018-05-18T13:30:37.087Z,93298.40
2018-05-18T13:33:03.565Z,93287.13
2018-05-18T13:35:37.270Z,93285.84
2018-05-18T13:38:03.867Z,93289.32
2018-05-18T13:40:30.347Z,93282.82
2018-05-18T13:42:56.827Z,93280.73
2018-05-18T13:45:23.482Z,93294.37
2018-05-18T13:47:49.843Z,93283.23
2018-05-18T13:50:16.657Z,93296.13
2018-05-18T13:52:43.217Z,93289.02
2018-05-18T13:55:15.377Z,93291.55
2018-05-18T13:57:42.707Z,93293.81
2018-05-18T14:00:09.397Z,93288.95
2018-05-18T14:02:36.178Z,93298.93
2018-05-18T14:05:02.861Z,93288.81
2018-05-18T14:07:30.448Z,93290.66
2018-05-18T14:09:57.185Z,93292.97
2018-05-18T14:12:24.352Z,93286.87
2018-05-18T14:14:51.608Z,93295.45
2018-05-18T14:17:18.360Z,93285.84
2018-05-18T14:19:44.951Z,93292.59
2018-05-18T14:22:11.809Z,93294.70
2018-05-18T14:24:38.537Z,93293.91
2018-05-18T14:27:05.421Z,93296.67
2018-05-18T14:29:31.879Z,93294.85
2018-05-18T14:31:58.352Z,93299.16
2018-05-18T14:34:25.981Z,93294.39
2018-05-18T14:36:52.584Z,93296.72
2018-05-18T14:39:19.049Z,93297.59
2018-05-18T14:41:45.561Z,93299.05
2018-05-18T14:44:11.996Z,93301.97
2018-05-18T14:46:38.825Z,93306.36
2018-05-18T14:49:05.362Z,93298.12
2018-05-18T14:51:31.856Z,93304.31
2018-05-18T14:53:58.384Z,93297.89
2018-05-18T14:56:30.131Z,93289.60
2018-05-18T14:58:56.625Z,93299.06
2018-05-18T15:01:23.039Z,93297.86
2018-05-18T15:03:49.695Z,93296.09
2018-05-18T15:06:17.276Z,93301.63
2018-05-18T15:08:44.974Z,93293.23
2018-05-18T15:11:11.673Z,93302.21
2018-05-18T15:13:38.140Z,93302.56
2018-05-18T15:16:04.773Z,93310.64
2018-05-18T15:18:31.434Z,93311.94
2018-05-18T15:20:58.003Z,93314.28
2018-05-18T15:23:25.361Z,93305.20
2018-05-18T15:25:53.228Z,93306.39
2018-05-18T15:28:20.050Z,93310.66
2018-05-18T15:30:47.969Z,93307.34
2018-05-18T15:33:15.097Z,93308.09
2018-05-18T15:35:41.599Z,93305.78
2018-05-18T15:38:08.179Z,93304.53
2018-05-18T15:40:34.710Z,93300.09
2018-05-18T15:43:01.793Z,93304.48
2018-05-18T15:45:28.992Z,93301.83
2018-05-18T15:47:55.602Z,93306.31
2018-05-18T15:50:22.017Z,93298.38
2018-05-18T15:52:48.439Z,93302.03
2018-05-18T15:55:14.866Z,93304.88
2018-05-18T15:57:41.339Z,93302.56
2018-05-18T16:00:07.872Z,93301.41
2018-05-18T16:02:34.646Z,93299.27
2018-05-18T16:05:02.591Z,93303.56
2018-05-18T16:07:32.676Z,93302.33
2018-05-18T16:09:59.400Z,93306.44
2018-05-18T16:12:26.597Z,93307.34
2018-05-18T16:14:53.413Z,93304.33
2018-05-18T16:17:20.042Z,93305.56
2018-05-18T16:19:46.757Z,93307.98
2018-05-18T16:22:13.737Z,93306.38
2018-05-18T16:24:40.310Z,93305.70
2018-05-18T16:27:08.378Z,93308.34
2018-05-18T16:29:35.779Z,93308.34
2018-05-18T16:32:04.381Z,93313.27
2018-05-18T16:34:31.074Z,93310.63
2018-05-18T16:36:57.961Z,93308.86
2018-05-18T16:39:24.436Z,93312.64
2018-05-18T16:41:51.632Z,93315.17
2018-05-18T16:44:18.183Z,93312.84
2018-05-18T16:46:45.955Z,93314.52
2018-05-18T16:49:12.700Z,93316.52
2018-05-18T16:51:39.757Z,93312.41
2018-05-18T16:54:06.375Z,93316.12
2018-05-18T16:56:33.236Z,93311.13
2018-05-18T16:58:59.809Z,93314.68
2018-05-18T17:01:26.991Z,93319.52
2018-05-18T17:03:55.327Z,93312.13
2018-05-18T17:06:23.363Z,93311.53
2018-05-18T17:08:50.704Z,93317.16
2018-05-18T17:11:18.040Z,93315.71
2018-05-18T17:13:45.395Z,93314.49
2018-05-18T17:16:13.558Z,93308.23
2018-05-18T17:18:42.494Z,93311.75
2018-05-18T17:21:12.485Z,93313.33
2018-05-18T17:23:44.227Z,93317.84
2018-05-18T17:26:15.049Z,93318.83
2018-05-18T17:28:45.908Z,93324.27
2018-05-18T17:31:16.654Z,93323.13
2018-05-18T17:33:47.275Z,93328.42
2018-05-18T17:36:18.705Z,93332.13
2018-05-18T17:38:47.956Z,93332.10
2018-05-18T17:41:17.669Z,93335.84
2018-05-18T17:43:47.369Z,93339.98
2018-05-18T17:46:15.383Z,93344.69
2018-05-18T17:48:43.546Z,93351.37
2018-05-18T17:51:11.887Z,93357.25
2018-05-18T17:53:40.715Z,93354.87
2018-05-18T17:56:09.438Z,93357.95
2018-05-18T17:58:37.260Z,93358.66
2018-05-18T18:01:05.586Z,93365.13
2018-05-18T18:03:34.525Z,93363.55
2018-05-18T18:06:02.697Z,93365.14
2018-05-18T18:08:30.443Z,93366.27
2018-05-18T18:10:58.643Z,93373.45
2018-05-18T18:13:26.230Z,93373.62
2018-05-18T18:15:54.429Z,93379.22
2018-05-18T18:18:22.365Z,93377.08
2018-05-18T18:20:50.609Z,93382.30
2018-05-18T18:23:17.832Z,93379.89
2018-05-18T18:25:45.812Z,93381.80
2018-05-18T18:28:14.054Z,93379.41
2018-05-18T18:30:44.103Z,93386.81
2018-05-18T18:33:12.490Z,93388.04
2018-05-18T18:35:40.849Z,93388.89
2018-05-18T18:38:08.816Z,93387.90
2018-05-18T18:40:36.473Z,93386.13
2018-05-18T18:43:03.624Z,93391.60
2018-05-18T18:45:31.331Z,93385.91
2018-05-18T18:47:59.941Z,93396.36
2018-05-18T18:50:27.636Z,93398.72
2018-05-18T18:52:55.122Z,93398.13
2018-05-18T18:55:22.991Z,93400.16
2018-05-18T18:57:50.319Z,93397.11
2018-05-18T19:00:18.022Z,93399.44
2018-05-18T19:02:45.366Z,93396.48
2018-05-18T19:05:11.937Z,93394.41
2018-05-18T19:07:39.613Z,93394.66
2018-05-18T19:10:06.894Z,93397.69
2018-05-18T19:12:33.663Z,93395.17
2018-05-18T19:15:01.485Z,93393.34
2018-05-18T19:17:28.909Z,93393.33
2018-05-18T19:19:55.505Z,93394.09
2018-05-18T19:22:22.555Z,93387.34
2018-05-18T19:24:49.446Z,93384.79
2018-05-18T19:27:16.173Z,93392.55
2018-05-18T19:29:42.927Z,93387.22
2018-05-18T19:32:10.325Z,93392.55
2018-05-18T19:34:38.098Z,93390.00
2018-05-18T19:37:05.114Z,93388.29
2018-05-18T19:39:32.710Z,93388.31
2018-05-18T19:42:00.080Z,93388.66
2018-05-18T19:44:26.806Z,93383.83
2018-05-18T19:46:53.840Z,93378.52
2018-05-18T19:49:20.559Z,93380.04
2018-05-18T19:51:47.392Z,93374.16
2018-05-18T19:54:14.140Z,93368.56
2018-05-18T19:56:40.731Z,93364.14
2018-05-18T19:59:07.357Z,93370.20
2018-05-18T20:01:34.061Z,93365.72
2018-05-18T20:04:01.045Z,93369.66
2018-05-18T20:06:29.378Z,93371.58
2018-05-18T20:08:56.554Z,93365.98
2018-05-18T20:11:23.463Z,93374.66
2018-05-18T20:13:50.030Z,93368.18
2018-05-18T20:16:16.763Z,93353.96
2018-05-18T20:18:43.692Z,93365.74
2018-05-18T20:21:10.483Z,93344.48
2018-05-18T20:23:37.327Z,93343.73
2018-05-18T20:26:04.436Z,93343.58
2018-05-18T20:28:31.178Z,93337.88
2018-05-18T20:30:57.726Z,93339.66
2018-05-18T20:33:24.233Z,93334.07
2018-05-18T20:35:50.813Z,93334.20
2018-05-18T20:38:17.463Z,93339.30
2018-05-18T20:40:43.877Z,93335.43
2018-05-18T20:43:10.323Z,93330.77
2018-05-18T20:45:36.818Z,93338.55
2018-05-18T20:48:03.267Z,93338.88
2018-05-18T20:50:30.603Z,93339.45
2018-05-18T20:52:57.262Z,93349.66
2018-05-18T20:55:23.698Z,93350.08
2018-05-18T20:57:50.270Z,93356.34
2018-05-18T21:00:16.813Z,93366.01
2018-05-18T21:02:43.211Z,93369.63
2018-05-18T21:05:09.899Z,93375.47
2018-05-18T21:07:36.313Z,93372.52
2018-05-18T21:10:02.892Z,93375.16
2018-05-18T21:12:29.477Z,93371.83
2018-05-18T21:14:56.014Z,93374.17
2018-05-18T21:17:22.457Z,93382.65
2018-05-18T21:19:48.956Z,93378.26
2018-05-18T21:22:16.372Z,93384.17
2018-05-18T21:24:42.977Z,93379.95
2018-05-18T21:27:09.375Z,93389.45
2018-05-18T21:29:35.821Z,93385.46
2018-05-18T21:32:02.356Z,93377.05
2018-05-18T21:34:29.071Z,93385.91
2018-05-18T21:36:55.838Z,93383.39
2018-05-18T21:39:22.653Z,93392.52
2018-05-18T21:41:49.328Z,93388.56
2018-05-18T21:44:16.345Z,93390.84
2018-05-18T21:46:43.722Z,93397.69
2018-05-18T21:49:10.713Z,93393.96
2018-05-18T21:51:37.322Z,93396.05
2018-05-18T21:54:03.753Z,93387.69
2018-05-18T21:56:30.212Z,93382.80
2018-05-18T21:58:56.926Z,93380.08
2018-05-18T22:01:23.546Z,93383.70
2018-05-18T22:03:49.925Z,93381.27
2018-05-18T22:06:17.444Z,93393.59
2018-05-18T22:08:43.957Z,93387.20
2018-05-18T22:11:10.480Z,93386.17
2018-05-18T22:13:36.994Z,93379.41
2018-05-18T22:16:03.599Z,93381.47
2018-05-18T22:18:30.154Z,93385.73
2018-05-18T22:20:56.605Z,93381.26
2018-05-18T22:23:22.962Z,93378.59
2018-05-18T22:25:49.323Z,93377.19
2018-05-18T22:28:15.655Z,93383.06
2018-05-18T22:30:42.011Z,93375.27
2018-05-18T22:33:08.340Z,93376.72
2018-05-18T22:35:35.110Z,93379.17
2018-05-18T22:38:01.622Z,93376.96
2018-05-18T22:40:29.008Z,93382.88
2018-05-18T22:42:55.479Z,93378.98
2018-05-18T22:45:21.831Z,93386.42
2018-05-18T22:47:48.432Z,93371.22
2018-05-18T22:50:15.000Z,93365.06
2018-05-18T22:52:41.595Z,93365.49
2018-05-18T22:55:07.982Z,93366.95
2018-05-18T22:57:34.636Z,93367.68
2018-05-18T23:00:01.107Z,93356.63
2018-05-18T23:02:27.578Z,93376.81
2018-05-18T23:04:53.993Z,93375.71
2018-05-18T23:07:20.572Z,93381.67
2018-05-18T23:09:47.017Z,93368.11
2018-05-18T23:12:13.482Z,93369.71
2018-05-18T23:14:39.818Z,93364.61
2018-05-18T23:17:06.225Z,93363.64
2018-05-18T23:19:32.676Z,93363.91
2018-05-18T23:21:59.067Z,93361.52
2018-05-18T23:24:25.425Z,93353.03
2018-05-18T23:26:52.608Z,93353.97
2018-05-18T23:29:18.992Z,93346.84
2018-05-18T23:31:45.397Z,93345.32
2018-05-18T23:34:11.823Z,93348.34
2018-05-18T23:36:38.207Z,93356.11
2018-05-18T23:39:04.608Z,93361.08
2018-05-18T23:41:31.079Z,93360.48
2018-05-18T23:43:57.524Z,93361.13
2018-05-18T23:46:24.106Z,93354.08
2018-05-18T23:48:50.567Z,93343.92
2018-05-18T23:51:16.900Z,93339.49
2018-05-18T23:53:43.233Z,93340.24
2018-05-18T23:56:11.768Z,93338.94
2018-05-18T23:58:39.218Z,93328.75
